sensor_id;sensor_type;location;lat;lon;timestamp;temperature;humidity
3923;DHT22;1976;51.694;6.256;2023-08-07T00:00:22;14.10;99.90
3923;DHT22;1976;51.694;6.256;2023-08-07T00:02:48;14.10;99.90
3923;DHT22;1976;51.694;6.256;2023-08-07T00:05:14;14.20;99.90
3923;DHT22;1976;51.694;6.256;2023-08-07T00:07:42;14.10;99.90
3923;DHT22;1976;51.694;6.256;2023-08-07T00:10:08;14.20;99.90
3923;DHT22;1976;51.694;6.256;2023-08-07T00:12:33;14.10;99.90
3923;DHT22;1976;51.694;6.256;2023-08-07T00:14:59;14.10;99.90
3923;DHT22;1976;51.694;6.256;2023-08-07T00:17:26;14.10;99.90
3923;DHT22;1976;51.694;6.256;2023-08-07T00:19:51;14.20;99.90
3923;DHT22;1976;51.694;6.256;2023-08-07T00:22:17;14.20;99.90
3923;DHT22;1976;51.694;6.256;2023-08-07T00:24:43;14.20;99.90
3923;DHT22;1976;51.694;6.256;2023-08-07T00:27:08;14.30;99.90
3923;DHT22;1976;51.694;6.256;2023-08-07T00:29:38;14.30;99.90
3923;DHT22;1976;51.694;6.256;2023-08-07T00:32:04;14.30;99.90
3923;DHT22;1976;51.694;6.256;2023-08-07T00:34:30;14.40;99.90
3923;DHT22;1976;51.694;6.256;2023-08-07T00:36:56;14.30;99.90
3923;DHT22;1976;51.694;6.256;2023-08-07T00:39:22;14.30;99.90
3923;DHT22;1976;51.694;6.256;2023-08-07T00:41:48;14.30;99.90
3923;DHT22;1976;51.694;6.256;2023-08-07T00:44:13;14.20;99.90
3923;DHT22;1976;51.694;6.256;2023-08-07T00:46:39;14.20;99.90
3923;DHT22;1976;51.694;6.256;2023-08-07T00:49:06;14.10;99.90
3923;DHT22;1976;51.694;6.256;2023-08-07T00:51:33;14.10;99.90
3923;DHT22;1976;51.694;6.256;2023-08-07T00:54:02;14.00;99.90
3923;DHT22;1976;51.694;6.256;2023-08-07T00:56:29;14.00;99.90
3923;DHT22;1976;51.694;6.256;2023-08-07T00:58:55;14.00;99.90
3923;DHT22;1976;51.694;6.256;2023-08-07T01:01:21;14.00;99.90
3923;DHT22;1976;51.694;6.256;2023-08-07T01:03:47;13.90;99.90
3923;DHT22;1976;51.694;6.256;2023-08-07T01:06:12;13.90;99.90
3923;DHT22;1976;51.694;6.256;2023-08-07T01:08:38;14.00;99.90
3923;DHT22;1976;51.694;6.256;2023-08-07T01:11:32;13.90;99.90
3923;DHT22;1976;51.694;6.256;2023-08-07T01:19:11;13.90;99.90
3923;DHT22;1976;51.694;6.256;2023-08-07T01:21:39;13.90;99.90
3923;DHT22;1976;51.694;6.256;2023-08-07T01:24:05;13.80;99.90
3923;DHT22;1976;51.694;6.256;2023-08-07T01:26:31;13.80;99.90
3923;DHT22;1976;51.694;6.256;2023-08-07T01:29:15;13.80;99.90
3923;DHT22;1976;51.694;6.256;2023-08-07T01:31:45;13.80;99.90
3923;DHT22;1976;51.694;6.256;2023-08-07T01:34:12;13.80;99.90
3923;DHT22;1976;51.694;6.256;2023-08-07T01:36:40;13.70;99.90
3923;DHT22;1976;51.694;6.256;2023-08-07T01:39:06;13.80;99.90
3923;DHT22;1976;51.694;6.256;2023-08-07T01:41:33;13.80;99.90
3923;DHT22;1976;51.694;6.256;2023-08-07T01:44:02;13.80;99.90
3923;DHT22;1976;51.694;6.256;2023-08-07T01:46:29;13.80;99.90
3923;DHT22;1976;51.694;6.256;2023-08-07T01:48:54;13.80;99.90
3923;DHT22;1976;51.694;6.256;2023-08-07T01:51:20;13.70;99.90
3923;DHT22;1976;51.694;6.256;2023-08-07T01:53:46;13.80;99.90
3923;DHT22;1976;51.694;6.256;2023-08-07T01:56:13;13.80;99.90
3923;DHT22;1976;51.694;6.256;2023-08-07T01:58:38;13.80;99.90
3923;DHT22;1976;51.694;6.256;2023-08-07T02:01:04;13.80;99.90
3923;DHT22;1976;51.694;6.256;2023-08-07T02:03:30;13.80;99.90
3923;DHT22;1976;51.694;6.256;2023-08-07T02:05:55;13.80;99.90
3923;DHT22;1976;51.694;6.256;2023-08-07T02:08:21;13.80;99.90
3923;DHT22;1976;51.694;6.256;2023-08-07T02:10:47;13.70;99.90
3923;DHT22;1976;51.694;6.256;2023-08-07T02:13:12;13.70;99.90
3923;DHT22;1976;51.694;6.256;2023-08-07T02:15:38;13.80;99.90
3923;DHT22;1976;51.694;6.256;2023-08-07T02:18:03;13.80;99.90
3923;DHT22;1976;51.694;6.256;2023-08-07T02:20:29;13.80;99.90
3923;DHT22;1976;51.694;6.256;2023-08-07T02:22:55;13.80;99.90
3923;DHT22;1976;51.694;6.256;2023-08-07T02:25:20;13.80;99.90
3923;DHT22;1976;51.694;6.256;2023-08-07T02:27:46;13.80;99.90
3923;DHT22;1976;51.694;6.256;2023-08-07T02:30:12;13.80;99.90
3923;DHT22;1976;51.694;6.256;2023-08-07T02:32:37;13.80;99.90
3923;DHT22;1976;51.694;6.256;2023-08-07T02:35:03;13.80;99.90
3923;DHT22;1976;51.694;6.256;2023-08-07T02:37:29;13.80;99.90
3923;DHT22;1976;51.694;6.256;2023-08-07T02:39:54;13.70;99.90
3923;DHT22;1976;51.694;6.256;2023-08-07T02:42:20;13.70;99.90
3923;DHT22;1976;51.694;6.256;2023-08-07T02:44:46;13.70;99.90
3923;DHT22;1976;51.694;6.256;2023-08-07T02:47:11;13.70;99.90
3923;DHT22;1976;51.694;6.256;2023-08-07T02:49:37;13.70;99.90
3923;DHT22;1976;51.694;6.256;2023-08-07T02:52:03;13.70;99.90
3923;DHT22;1976;51.694;6.256;2023-08-07T02:54:28;13.70;99.90
3923;DHT22;1976;51.694;6.256;2023-08-07T02:56:54;13.80;99.90
3923;DHT22;1976;51.694;6.256;2023-08-07T02:59:20;13.70;99.90
3923;DHT22;1976;51.694;6.256;2023-08-07T03:01:45;13.70;99.90
3923;DHT22;1976;51.694;6.256;2023-08-07T03:04:11;13.70;99.90
3923;DHT22;1976;51.694;6.256;2023-08-07T03:06:37;13.70;99.90
3923;DHT22;1976;51.694;6.256;2023-08-07T03:09:02;13.70;99.90
3923;DHT22;1976;51.694;6.256;2023-08-07T03:11:29;13.70;99.90
3923;DHT22;1976;51.694;6.256;2023-08-07T03:13:54;13.70;99.90
3923;DHT22;1976;51.694;6.256;2023-08-07T03:16:21;13.70;99.90
3923;DHT22;1976;51.694;6.256;2023-08-07T03:18:46;13.70;99.90
3923;DHT22;1976;51.694;6.256;2023-08-07T03:21:12;13.70;99.90
3923;DHT22;1976;51.694;6.256;2023-08-07T03:23:38;13.70;99.90
3923;DHT22;1976;51.694;6.256;2023-08-07T03:26:07;13.70;99.90
3923;DHT22;1976;51.694;6.256;2023-08-07T03:28:33;13.70;99.90
3923;DHT22;1976;51.694;6.256;2023-08-07T03:30:59;13.80;99.90
3923;DHT22;1976;51.694;6.256;2023-08-07T03:33:24;13.90;99.90
3923;DHT22;1976;51.694;6.256;2023-08-07T03:35:50;13.90;99.90
3923;DHT22;1976;51.694;6.256;2023-08-07T03:38:16;13.90;99.90
3923;DHT22;1976;51.694;6.256;2023-08-07T03:40:42;14.00;99.90
3923;DHT22;1976;51.694;6.256;2023-08-07T03:43:07;14.00;99.90
3923;DHT22;1976;51.694;6.256;2023-08-07T03:45:33;14.00;99.90
3923;DHT22;1976;51.694;6.256;2023-08-07T03:47:58;14.00;99.90
3923;DHT22;1976;51.694;6.256;2023-08-07T03:50:24;14.00;99.90
3923;DHT22;1976;51.694;6.256;2023-08-07T03:52:49;14.10;99.90
3923;DHT22;1976;51.694;6.256;2023-08-07T03:55:15;14.10;99.90
3923;DHT22;1976;51.694;6.256;2023-08-07T03:57:41;14.10;99.90
3923;DHT22;1976;51.694;6.256;2023-08-07T04:00:07;14.10;99.90
3923;DHT22;1976;51.694;6.256;2023-08-07T04:02:33;14.10;99.90
3923;DHT22;1976;51.694;6.256;2023-08-07T04:04:58;14.00;99.90
3923;DHT22;1976;51.694;6.256;2023-08-07T04:07:24;14.00;99.90
3923;DHT22;1976;51.694;6.256;2023-08-07T04:09:49;14.00;99.90
3923;DHT22;1976;51.694;6.256;2023-08-07T04:12:15;14.00;99.90
3923;DHT22;1976;51.694;6.256;2023-08-07T04:14:41;13.90;99.90
3923;DHT22;1976;51.694;6.256;2023-08-07T04:17:06;13.90;99.90
3923;DHT22;1976;51.694;6.256;2023-08-07T04:19:32;13.80;99.90
3923;DHT22;1976;51.694;6.256;2023-08-07T04:21:58;13.80;99.90
3923;DHT22;1976;51.694;6.256;2023-08-07T04:24:24;13.70;99.90
3923;DHT22;1976;51.694;6.256;2023-08-07T04:26:49;13.70;99.90
3923;DHT22;1976;51.694;6.256;2023-08-07T04:29:15;13.70;99.90
3923;DHT22;1976;51.694;6.256;2023-08-07T04:31:40;13.60;99.90
3923;DHT22;1976;51.694;6.256;2023-08-07T04:34:06;13.60;99.90
3923;DHT22;1976;51.694;6.256;2023-08-07T04:36:32;13.60;99.90
3923;DHT22;1976;51.694;6.256;2023-08-07T04:38:58;13.60;99.90
3923;DHT22;1976;51.694;6.256;2023-08-07T04:41:24;13.60;99.90
3923;DHT22;1976;51.694;6.256;2023-08-07T04:43:49;13.60;99.90
3923;DHT22;1976;51.694;6.256;2023-08-07T04:46:15;13.60;99.90
3923;DHT22;1976;51.694;6.256;2023-08-07T04:48:41;13.60;99.90
3923;DHT22;1976;51.694;6.256;2023-08-07T04:51:06;13.60;99.90
3923;DHT22;1976;51.694;6.256;2023-08-07T04:53:32;13.60;99.90
3923;DHT22;1976;51.694;6.256;2023-08-07T04:55:59;13.60;99.90
3923;DHT22;1976;51.694;6.256;2023-08-07T04:58:25;13.60;99.90
3923;DHT22;1976;51.694;6.256;2023-08-07T05:00:57;13.50;99.90
3923;DHT22;1976;51.694;6.256;2023-08-07T05:03:24;13.60;99.90
3923;DHT22;1976;51.694;6.256;2023-08-07T05:05:50;13.60;99.90
3923;DHT22;1976;51.694;6.256;2023-08-07T05:08:16;13.60;99.90
3923;DHT22;1976;51.694;6.256;2023-08-07T05:10:42;13.50;99.90
3923;DHT22;1976;51.694;6.256;2023-08-07T05:13:07;13.60;99.90
3923;DHT22;1976;51.694;6.256;2023-08-07T05:15:33;13.60;99.90
3923;DHT22;1976;51.694;6.256;2023-08-07T05:17:59;13.60;99.90
3923;DHT22;1976;51.694;6.256;2023-08-07T05:20:25;13.60;99.90
3923;DHT22;1976;51.694;6.256;2023-08-07T05:22:51;13.70;99.90
3923;DHT22;1976;51.694;6.256;2023-08-07T05:25:17;13.70;99.90
3923;DHT22;1976;51.694;6.256;2023-08-07T05:27:43;13.70;99.90
3923;DHT22;1976;51.694;6.256;2023-08-07T05:30:09;13.70;99.90
3923;DHT22;1976;51.694;6.256;2023-08-07T05:32:35;13.80;99.90
3923;DHT22;1976;51.694;6.256;2023-08-07T05:35:04;13.80;99.90
3923;DHT22;1976;51.694;6.256;2023-08-07T05:37:30;13.80;99.90
3923;DHT22;1976;51.694;6.256;2023-08-07T05:39:57;13.90;99.90
3923;DHT22;1976;51.694;6.256;2023-08-07T05:42:22;13.90;99.90
3923;DHT22;1976;51.694;6.256;2023-08-07T05:44:48;13.90;99.90
3923;DHT22;1976;51.694;6.256;2023-08-07T05:47:14;13.90;99.90
3923;DHT22;1976;51.694;6.256;2023-08-07T05:49:39;14.00;99.90
3923;DHT22;1976;51.694;6.256;2023-08-07T05:52:05;14.00;99.90
3923;DHT22;1976;51.694;6.256;2023-08-07T05:54:31;14.00;99.90
3923;DHT22;1976;51.694;6.256;2023-08-07T05:56:57;14.00;99.90
3923;DHT22;1976;51.694;6.256;2023-08-07T05:59:23;14.00;99.90
3923;DHT22;1976;51.694;6.256;2023-08-07T06:01:48;14.00;99.90
3923;DHT22;1976;51.694;6.256;2023-08-07T06:04:14;14.00;99.90
3923;DHT22;1976;51.694;6.256;2023-08-07T06:06:40;14.00;99.90
3923;DHT22;1976;51.694;6.256;2023-08-07T06:09:06;14.00;99.90
3923;DHT22;1976;51.694;6.256;2023-08-07T06:11:32;14.10;99.90
3923;DHT22;1976;51.694;6.256;2023-08-07T06:13:58;14.10;99.90
3923;DHT22;1976;51.694;6.256;2023-08-07T06:16:24;14.10;99.90
3923;DHT22;1976;51.694;6.256;2023-08-07T06:18:50;14.10;99.90
3923;DHT22;1976;51.694;6.256;2023-08-07T06:21:15;14.10;99.90
3923;DHT22;1976;51.694;6.256;2023-08-07T06:23:41;14.10;99.90
3923;DHT22;1976;51.694;6.256;2023-08-07T06:26:07;14.20;99.90
3923;DHT22;1976;51.694;6.256;2023-08-07T06:28:34;14.20;99.90
3923;DHT22;1976;51.694;6.256;2023-08-07T06:31:09;14.20;99.90
3923;DHT22;1976;51.694;6.256;2023-08-07T06:33:35;14.30;99.90
3923;DHT22;1976;51.694;6.256;2023-08-07T06:36:02;14.30;99.90
3923;DHT22;1976;51.694;6.256;2023-08-07T06:38:28;14.40;99.90
3923;DHT22;1976;51.694;6.256;2023-08-07T06:40:54;14.40;99.90
3923;DHT22;1976;51.694;6.256;2023-08-07T06:43:19;14.30;99.90
3923;DHT22;1976;51.694;6.256;2023-08-07T06:45:52;14.30;99.90
3923;DHT22;1976;51.694;6.256;2023-08-07T06:48:18;14.40;99.90
3923;DHT22;1976;51.694;6.256;2023-08-07T06:50:43;14.40;99.90
3923;DHT22;1976;51.694;6.256;2023-08-07T06:53:09;14.40;99.90
3923;DHT22;1976;51.694;6.256;2023-08-07T06:55:35;14.40;99.90
3923;DHT22;1976;51.694;6.256;2023-08-07T06:58:00;14.50;99.90
3923;DHT22;1976;51.694;6.256;2023-08-07T07:00:26;14.50;99.90
3923;DHT22;1976;51.694;6.256;2023-08-07T07:02:51;14.60;99.90
3923;DHT22;1976;51.694;6.256;2023-08-07T07:05:18;14.60;99.90
3923;DHT22;1976;51.694;6.256;2023-08-07T07:07:43;14.60;99.90
3923;DHT22;1976;51.694;6.256;2023-08-07T07:10:09;14.70;99.90
3923;DHT22;1976;51.694;6.256;2023-08-07T07:12:35;14.70;99.90
3923;DHT22;1976;51.694;6.256;2023-08-07T07:15:01;14.80;99.90
3923;DHT22;1976;51.694;6.256;2023-08-07T07:17:27;14.90;99.90
3923;DHT22;1976;51.694;6.256;2023-08-07T07:19:53;15.00;99.90
3923;DHT22;1976;51.694;6.256;2023-08-07T07:22:19;15.10;99.90
3923;DHT22;1976;51.694;6.256;2023-08-07T07:24:44;15.30;99.90
3923;DHT22;1976;51.694;6.256;2023-08-07T07:27:10;15.40;99.90
3923;DHT22;1976;51.694;6.256;2023-08-07T07:29:36;15.50;99.90
3923;DHT22;1976;51.694;6.256;2023-08-07T07:32:01;15.70;99.90
3923;DHT22;1976;51.694;6.256;2023-08-07T07:34:27;16.00;99.90
3923;DHT22;1976;51.694;6.256;2023-08-07T07:36:53;16.20;99.90
3923;DHT22;1976;51.694;6.256;2023-08-07T07:39:19;16.40;99.90
3923;DHT22;1976;51.694;6.256;2023-08-07T07:41:45;16.50;99.90
3923;DHT22;1976;51.694;6.256;2023-08-07T07:44:11;16.60;99.90
3923;DHT22;1976;51.694;6.256;2023-08-07T07:46:36;16.70;99.90
3923;DHT22;1976;51.694;6.256;2023-08-07T07:49:02;16.90;99.90
3923;DHT22;1976;51.694;6.256;2023-08-07T07:51:29;17.10;99.90
3923;DHT22;1976;51.694;6.256;2023-08-07T07:53:55;17.20;99.90
3923;DHT22;1976;51.694;6.256;2023-08-07T07:56:20;17.20;99.90
3923;DHT22;1976;51.694;6.256;2023-08-07T07:58:46;17.30;99.90
3923;DHT22;1976;51.694;6.256;2023-08-07T08:01:11;17.40;99.90
3923;DHT22;1976;51.694;6.256;2023-08-07T08:03:37;17.50;99.90
3923;DHT22;1976;51.694;6.256;2023-08-07T08:06:02;17.50;99.90
3923;DHT22;1976;51.694;6.256;2023-08-07T08:08:28;17.60;99.90
3923;DHT22;1976;51.694;6.256;2023-08-07T08:10:54;17.80;99.90
3923;DHT22;1976;51.694;6.256;2023-08-07T08:13:20;18.00;99.90
3923;DHT22;1976;51.694;6.256;2023-08-07T08:15:45;18.20;99.90
3923;DHT22;1976;51.694;6.256;2023-08-07T08:18:11;18.30;99.90
3923;DHT22;1976;51.694;6.256;2023-08-07T08:20:38;18.40;99.90
3923;DHT22;1976;51.694;6.256;2023-08-07T08:23:04;18.40;99.90
3923;DHT22;1976;51.694;6.256;2023-08-07T08:25:30;18.20;99.90
3923;DHT22;1976;51.694;6.256;2023-08-07T08:27:56;18.20;99.90
3923;DHT22;1976;51.694;6.256;2023-08-07T08:30:22;18.30;99.90
3923;DHT22;1976;51.694;6.256;2023-08-07T08:32:48;18.30;99.90
3923;DHT22;1976;51.694;6.256;2023-08-07T08:35:14;18.30;99.90
3923;DHT22;1976;51.694;6.256;2023-08-07T08:37:39;18.70;99.90
3923;DHT22;1976;51.694;6.256;2023-08-07T08:40:06;18.50;99.90
3923;DHT22;1976;51.694;6.256;2023-08-07T08:42:34;18.20;99.90
3923;DHT22;1976;51.694;6.256;2023-08-07T08:45:00;17.60;99.90
3923;DHT22;1976;51.694;6.256;2023-08-07T08:47:29;17.30;99.90
3923;DHT22;1976;51.694;6.256;2023-08-07T08:50:17;17.10;99.90
3923;DHT22;1976;51.694;6.256;2023-08-07T08:52:44;17.10;99.90
3923;DHT22;1976;51.694;6.256;2023-08-07T08:55:11;17.30;99.90
3923;DHT22;1976;51.694;6.256;2023-08-07T08:57:38;17.60;99.90
3923;DHT22;1976;51.694;6.256;2023-08-07T09:00:08;17.90;99.90
3923;DHT22;1976;51.694;6.256;2023-08-07T09:02:44;18.00;99.90
3923;DHT22;1976;51.694;6.256;2023-08-07T09:05:10;18.10;99.90
3923;DHT22;1976;51.694;6.256;2023-08-07T09:07:36;18.20;99.90
3923;DHT22;1976;51.694;6.256;2023-08-07T09:10:03;18.30;99.90
3923;DHT22;1976;51.694;6.256;2023-08-07T09:12:31;18.50;99.90
3923;DHT22;1976;51.694;6.256;2023-08-07T09:14:58;19.00;99.90
3923;DHT22;1976;51.694;6.256;2023-08-07T09:17:28;19.40;99.90
3923;DHT22;1976;51.694;6.256;2023-08-07T09:19:54;19.40;99.90
3923;DHT22;1976;51.694;6.256;2023-08-07T09:22:21;19.30;99.90
3923;DHT22;1976;51.694;6.256;2023-08-07T09:24:47;19.30;99.90
3923;DHT22;1976;51.694;6.256;2023-08-07T09:27:13;19.60;99.90
3923;DHT22;1976;51.694;6.256;2023-08-07T09:29:43;20.70;99.90
3923;DHT22;1976;51.694;6.256;2023-08-07T09:32:12;21.20;99.90
3923;DHT22;1976;51.694;6.256;2023-08-07T09:34:39;21.20;99.90
3923;DHT22;1976;51.694;6.256;2023-08-07T09:37:05;20.90;99.90
3923;DHT22;1976;51.694;6.256;2023-08-07T09:39:31;20.60;99.90
3923;DHT22;1976;51.694;6.256;2023-08-07T09:41:56;20.30;99.90
3923;DHT22;1976;51.694;6.256;2023-08-07T09:44:22;19.80;99.90
3923;DHT22;1976;51.694;6.256;2023-08-07T09:46:47;19.10;99.90
3923;DHT22;1976;51.694;6.256;2023-08-07T09:49:13;18.50;99.90
3923;DHT22;1976;51.694;6.256;2023-08-07T09:51:46;17.80;99.90
3923;DHT22;1976;51.694;6.256;2023-08-07T09:54:12;17.10;99.90
3923;DHT22;1976;51.694;6.256;2023-08-07T09:56:39;16.70;99.90
3923;DHT22;1976;51.694;6.256;2023-08-07T09:59:05;16.50;99.90
3923;DHT22;1976;51.694;6.256;2023-08-07T10:01:32;16.50;99.90
3923;DHT22;1976;51.694;6.256;2023-08-07T10:03:57;16.60;99.90
3923;DHT22;1976;51.694;6.256;2023-08-07T10:06:24;17.80;99.90
3923;DHT22;1976;51.694;6.256;2023-08-07T10:08:51;19.90;99.90
3923;DHT22;1976;51.694;6.256;2023-08-07T10:11:17;22.40;99.90
3923;DHT22;1976;51.694;6.256;2023-08-07T10:13:43;24.70;99.90
3923;DHT22;1976;51.694;6.256;2023-08-07T10:16:10;26.60;99.90
3923;DHT22;1976;51.694;6.256;2023-08-07T10:18:36;28.50;99.90
3923;DHT22;1976;51.694;6.256;2023-08-07T10:21:05;30.00;99.90
3923;DHT22;1976;51.694;6.256;2023-08-07T10:23:34;29.50;99.10
3923;DHT22;1976;51.694;6.256;2023-08-07T10:26:02;28.50;99.90
3923;DHT22;1976;51.694;6.256;2023-08-07T10:28:30;27.40;99.90
3923;DHT22;1976;51.694;6.256;2023-08-07T10:30:57;26.50;99.90
3923;DHT22;1976;51.694;6.256;2023-08-07T10:33:23;25.10;99.90
3923;DHT22;1976;51.694;6.256;2023-08-07T10:35:52;23.80;99.90
3923;DHT22;1976;51.694;6.256;2023-08-07T10:38:19;22.50;99.90
3923;DHT22;1976;51.694;6.256;2023-08-07T10:43:45;21.10;99.90
3923;DHT22;1976;51.694;6.256;2023-08-07T10:46:19;21.50;99.90
3923;DHT22;1976;51.694;6.256;2023-08-07T10:48:47;23.00;99.90
3923;DHT22;1976;51.694;6.256;2023-08-07T10:51:17;24.20;99.90
3923;DHT22;1976;51.694;6.256;2023-08-07T10:53:45;25.70;99.00
3923;DHT22;1976;51.694;6.256;2023-08-07T10:56:33;26.40;97.20
3923;DHT22;1976;51.694;6.256;2023-08-07T10:59:10;26.30;96.40
3923;DHT22;1976;51.694;6.256;2023-08-07T11:04:10;24.30;96.60
3923;DHT22;1976;51.694;6.256;2023-08-07T11:06:37;24.10;98.20
3923;DHT22;1976;51.694;6.256;2023-08-07T11:09:04;24.80;98.00
3923;DHT22;1976;51.694;6.256;2023-08-07T11:11:44;25.30;97.20
3923;DHT22;1976;51.694;6.256;2023-08-07T11:14:15;26.20;96.10
3923;DHT22;1976;51.694;6.256;2023-08-07T11:16:42;27.40;95.10
3923;DHT22;1976;51.694;6.256;2023-08-07T11:19:08;28.60;94.00
3923;DHT22;1976;51.694;6.256;2023-08-07T11:21:34;29.20;91.70
3923;DHT22;1976;51.694;6.256;2023-08-07T11:24:00;29.30;88.70
3923;DHT22;1976;51.694;6.256;2023-08-07T11:26:26;29.40;89.80
3923;DHT22;1976;51.694;6.256;2023-08-07T11:28:54;29.00;88.30
3923;DHT22;1976;51.694;6.256;2023-08-07T11:31:20;29.30;88.00
3923;DHT22;1976;51.694;6.256;2023-08-07T11:33:46;29.20;86.10
3923;DHT22;1976;51.694;6.256;2023-08-07T11:36:13;29.00;86.20
3923;DHT22;1976;51.694;6.256;2023-08-07T11:38:43;28.10;85.00
3923;DHT22;1976;51.694;6.256;2023-08-07T11:41:10;27.00;88.10
3923;DHT22;1976;51.694;6.256;2023-08-07T11:43:37;26.00;90.30
3923;DHT22;1976;51.694;6.256;2023-08-07T11:46:05;25.40;90.80
3923;DHT22;1976;51.694;6.256;2023-08-07T11:48:34;24.80;91.10
3923;DHT22;1976;51.694;6.256;2023-08-07T11:51:01;24.00;92.30
3923;DHT22;1976;51.694;6.256;2023-08-07T11:53:29;23.20;93.30
3923;DHT22;1976;51.694;6.256;2023-08-07T11:55:56;22.60;95.00
3923;DHT22;1976;51.694;6.256;2023-08-07T11:58:24;22.00;95.50
3923;DHT22;1976;51.694;6.256;2023-08-07T12:00:50;21.70;96.60
3923;DHT22;1976;51.694;6.256;2023-08-07T12:03:30;21.60;97.60
3923;DHT22;1976;51.694;6.256;2023-08-07T12:05:57;21.90;98.40
3923;DHT22;1976;51.694;6.256;2023-08-07T12:08:24;22.60;98.50
3923;DHT22;1976;51.694;6.256;2023-08-07T12:10:53;24.60;97.20
3923;DHT22;1976;51.694;6.256;2023-08-07T12:13:23;27.10;93.30
3923;DHT22;1976;51.694;6.256;2023-08-07T12:15:52;28.50;90.30
3923;DHT22;1976;51.694;6.256;2023-08-07T12:18:19;29.10;86.60
3923;DHT22;1976;51.694;6.256;2023-08-07T12:20:46;28.40;87.20
3923;DHT22;1976;51.694;6.256;2023-08-07T12:23:15;27.90;89.30
3923;DHT22;1976;51.694;6.256;2023-08-07T12:25:44;27.60;88.50
3923;DHT22;1976;51.694;6.256;2023-08-07T12:28:10;27.50;89.60
3923;DHT22;1976;51.694;6.256;2023-08-07T12:30:37;27.20;86.70
3923;DHT22;1976;51.694;6.256;2023-08-07T12:33:03;26.80;87.60
3923;DHT22;1976;51.694;6.256;2023-08-07T12:35:30;26.90;89.20
3923;DHT22;1976;51.694;6.256;2023-08-07T12:37:56;26.80;88.80
3923;DHT22;1976;51.694;6.256;2023-08-07T12:40:22;26.50;88.50
3923;DHT22;1976;51.694;6.256;2023-08-07T12:42:51;26.80;90.10
3923;DHT22;1976;51.694;6.256;2023-08-07T12:45:17;27.40;89.60
3923;DHT22;1976;51.694;6.256;2023-08-07T12:47:45;27.50;87.70
3923;DHT22;1976;51.694;6.256;2023-08-07T12:50:10;27.20;85.40
3923;DHT22;1976;51.694;6.256;2023-08-07T12:52:36;27.00;84.80
3923;DHT22;1976;51.694;6.256;2023-08-07T12:55:02;26.50;85.00
3923;DHT22;1976;51.694;6.256;2023-08-07T12:57:29;26.10;86.60
3923;DHT22;1976;51.694;6.256;2023-08-07T12:59:54;25.80;86.60
3923;DHT22;1976;51.694;6.256;2023-08-07T13:02:20;25.30;88.40
3923;DHT22;1976;51.694;6.256;2023-08-07T13:04:45;24.80;89.90
3923;DHT22;1976;51.694;6.256;2023-08-07T13:07:12;24.30;91.20
3923;DHT22;1976;51.694;6.256;2023-08-07T13:09:37;23.80;92.10
3923;DHT22;1976;51.694;6.256;2023-08-07T13:12:04;24.10;92.80
3923;DHT22;1976;51.694;6.256;2023-08-07T13:14:30;25.90;91.10
3923;DHT22;1976;51.694;6.256;2023-08-07T13:16:55;27.20;90.70
3923;DHT22;1976;51.694;6.256;2023-08-07T13:19:21;27.60;88.50
3923;DHT22;1976;51.694;6.256;2023-08-07T13:21:46;27.80;87.90
3923;DHT22;1976;51.694;6.256;2023-08-07T13:24:12;28.60;85.80
3923;DHT22;1976;51.694;6.256;2023-08-07T13:26:38;29.40;86.10
3923;DHT22;1976;51.694;6.256;2023-08-07T13:29:13;29.60;84.00
3923;DHT22;1976;51.694;6.256;2023-08-07T13:31:38;28.90;84.40
3923;DHT22;1976;51.694;6.256;2023-08-07T13:34:06;28.10;83.70
3923;DHT22;1976;51.694;6.256;2023-08-07T13:36:37;27.20;85.40
3923;DHT22;1976;51.694;6.256;2023-08-07T13:39:04;26.50;87.10
3923;DHT22;1976;51.694;6.256;2023-08-07T13:41:29;25.90;89.10
3923;DHT22;1976;51.694;6.256;2023-08-07T13:43:55;25.50;90.00
3923;DHT22;1976;51.694;6.256;2023-08-07T13:46:21;25.20;88.20
3923;DHT22;1976;51.694;6.256;2023-08-07T13:48:47;25.40;87.10
3923;DHT22;1976;51.694;6.256;2023-08-07T13:51:14;25.50;85.90
3923;DHT22;1976;51.694;6.256;2023-08-07T13:53:40;25.90;84.80
3923;DHT22;1976;51.694;6.256;2023-08-07T13:56:06;27.70;80.50
3923;DHT22;1976;51.694;6.256;2023-08-07T13:58:34;29.10;77.90
3923;DHT22;1976;51.694;6.256;2023-08-07T14:00:59;30.00;77.70
3923;DHT22;1976;51.694;6.256;2023-08-07T14:03:25;29.50;75.30
3923;DHT22;1976;51.694;6.256;2023-08-07T14:05:51;29.60;76.40
3923;DHT22;1976;51.694;6.256;2023-08-07T14:08:17;29.70;74.70
3923;DHT22;1976;51.694;6.256;2023-08-07T14:10:42;30.00;73.70
3923;DHT22;1976;51.694;6.256;2023-08-07T14:13:09;30.00;69.10
3923;DHT22;1976;51.694;6.256;2023-08-07T14:15:35;29.50;66.80
3923;DHT22;1976;51.694;6.256;2023-08-07T14:18:01;29.10;67.30
3923;DHT22;1976;51.694;6.256;2023-08-07T14:20:27;29.50;72.70
3923;DHT22;1976;51.694;6.256;2023-08-07T14:22:53;30.30;73.10
3923;DHT22;1976;51.694;6.256;2023-08-07T14:25:19;31.00;69.90
3923;DHT22;1976;51.694;6.256;2023-08-07T14:27:47;31.20;70.20
3923;DHT22;1976;51.694;6.256;2023-08-07T14:30:12;31.40;62.20
3923;DHT22;1976;51.694;6.256;2023-08-07T14:32:38;31.60;62.00
3923;DHT22;1976;51.694;6.256;2023-08-07T14:35:04;31.50;60.80
3923;DHT22;1976;51.694;6.256;2023-08-07T14:37:30;31.30;60.80
3923;DHT22;1976;51.694;6.256;2023-08-07T14:39:55;31.20;61.50
3923;DHT22;1976;51.694;6.256;2023-08-07T14:42:21;31.10;59.80
3923;DHT22;1976;51.694;6.256;2023-08-07T14:44:47;31.20;60.80
3923;DHT22;1976;51.694;6.256;2023-08-07T14:47:13;31.10;60.40
3923;DHT22;1976;51.694;6.256;2023-08-07T14:49:38;30.10;59.00
3923;DHT22;1976;51.694;6.256;2023-08-07T14:52:05;29.30;59.90
3923;DHT22;1976;51.694;6.256;2023-08-07T14:54:32;29.60;62.70
3923;DHT22;1976;51.694;6.256;2023-08-07T14:56:58;30.10;61.80
3923;DHT22;1976;51.694;6.256;2023-08-07T14:59:25;29.80;63.40
3923;DHT22;1976;51.694;6.256;2023-08-07T15:01:51;29.20;62.30
3923;DHT22;1976;51.694;6.256;2023-08-07T15:04:16;28.50;64.80
3923;DHT22;1976;51.694;6.256;2023-08-07T15:06:42;27.90;64.90
3923;DHT22;1976;51.694;6.256;2023-08-07T15:09:08;27.10;67.40
3923;DHT22;1976;51.694;6.256;2023-08-07T15:11:35;26.80;68.30
3923;DHT22;1976;51.694;6.256;2023-08-07T15:14:00;26.40;70.40
3923;DHT22;1976;51.694;6.256;2023-08-07T15:16:30;25.80;75.70
3923;DHT22;1976;51.694;6.256;2023-08-07T15:18:55;25.20;80.10
3923;DHT22;1976;51.694;6.256;2023-08-07T15:21:21;25.40;81.00
3923;DHT22;1976;51.694;6.256;2023-08-07T15:23:47;25.60;80.20
3923;DHT22;1976;51.694;6.256;2023-08-07T15:26:12;25.30;80.20
3923;DHT22;1976;51.694;6.256;2023-08-07T15:28:38;24.60;80.80
3923;DHT22;1976;51.694;6.256;2023-08-07T15:31:04;24.10;83.10
3923;DHT22;1976;51.694;6.256;2023-08-07T15:33:30;23.50;85.30
3923;DHT22;1976;51.694;6.256;2023-08-07T15:35:56;23.00;87.30
3923;DHT22;1976;51.694;6.256;2023-08-07T15:38:23;22.70;88.20
3923;DHT22;1976;51.694;6.256;2023-08-07T15:40:48;22.50;90.10
3923;DHT22;1976;51.694;6.256;2023-08-07T15:43:14;22.70;89.90
3923;DHT22;1976;51.694;6.256;2023-08-07T15:45:39;22.70;90.20
3923;DHT22;1976;51.694;6.256;2023-08-07T15:48:06;22.50;90.60
3923;DHT22;1976;51.694;6.256;2023-08-07T15:50:33;22.30;91.30
3923;DHT22;1976;51.694;6.256;2023-08-07T15:53:02;22.30;92.00
3923;DHT22;1976;51.694;6.256;2023-08-07T15:55:27;23.30;91.50
3923;DHT22;1976;51.694;6.256;2023-08-07T15:57:54;23.70;90.30
3923;DHT22;1976;51.694;6.256;2023-08-07T16:00:20;23.50;90.00
3923;DHT22;1976;51.694;6.256;2023-08-07T16:02:46;23.00;89.50
3923;DHT22;1976;51.694;6.256;2023-08-07T16:05:11;22.60;90.30
3923;DHT22;1976;51.694;6.256;2023-08-07T16:07:37;22.40;90.90